Terminal Aerodrome Forecast
Issued by NWS

Home | Current Version | Previous Version | Text Only | Print | Product List | Glossary On
Versions: 1 2 3 4 5 6 7 8 9 10 11 12 13 14 15 16 17 18 19 20 21
592
FTUS41 KPBZ 241304 AAA
TAFFKL
TAF AMD
KFKL 241304Z 2413/2512 00000KT P6SM BKN250
     FM241800 23005KT P6SM -SHRA VCTS BKN040CB
     FM250300 20004KT P6SM SCT020 BKN080
     FM250600 21003KT P6SM BKN025
      AMD LTD TO CLD VIS AND WIND=

USA.gov is the U.S. government's official web portal to all federal, state and local government web resources and services.